sensor_id;sensor_type;location;lat;lon;timestamp;pressure;altitude;pressure_sealevel;temperature;humidity
48964;BME280;34776;48.180;16.420;2023-02-19T00:01:09;99971.19;;;14.38;53.59
48964;BME280;34776;48.180;16.420;2023-02-19T00:03:36;99973.09;;;14.36;53.57
48964;BME280;34776;48.180;16.420;2023-02-19T00:06:07;99977.78;;;14.33;53.70
48964;BME280;34776;48.180;16.420;2023-02-19T00:08:33;99977.69;;;14.34;53.87
48964;BME280;34776;48.180;16.420;2023-02-19T00:11:04;99975.50;;;14.27;54.50
48964;BME280;34776;48.180;16.420;2023-02-19T00:13:30;99981.31;;;14.19;54.68
48964;BME280;34776;48.180;16.420;2023-02-19T00:15:56;99975.59;;;14.11;55.29
48964;BME280;34776;48.180;16.420;2023-02-19T00:18:23;99973.44;;;14.03;55.60
48964;BME280;34776;48.180;16.420;2023-02-19T00:20:49;99981.75;;;13.98;55.99
48964;BME280;34776;48.180;16.420;2023-02-19T00:23:14;99975.25;;;13.88;56.49
48964;BME280;34776;48.180;16.420;2023-02-19T00:25:39;99986.50;;;13.79;56.80
48964;BME280;34776;48.180;16.420;2023-02-19T00:28:05;99984.97;;;13.75;56.99
48964;BME280;34776;48.180;16.420;2023-02-19T00:30:30;99980.59;;;13.74;56.74
48964;BME280;34776;48.180;16.420;2023-02-19T00:32:56;99980.69;;;13.72;57.04
48964;BME280;34776;48.180;16.420;2023-02-19T00:35:21;99989.53;;;13.73;57.08
48964;BME280;34776;48.180;16.420;2023-02-19T00:37:47;99995.47;;;13.78;57.21
48964;BME280;34776;48.180;16.420;2023-02-19T00:40:12;99984.59;;;13.81;56.94
48964;BME280;34776;48.180;16.420;2023-02-19T00:42:38;99990.69;;;13.83;57.28
48964;BME280;34776;48.180;16.420;2023-02-19T00:45:03;99992.44;;;13.84;57.15
48964;BME280;34776;48.180;16.420;2023-02-19T00:47:29;99994.44;;;13.80;57.22
48964;BME280;34776;48.180;16.420;2023-02-19T00:49:54;99995.66;;;13.75;57.34
48964;BME280;34776;48.180;16.420;2023-02-19T00:52:19;100003.56;;;13.76;57.70
48964;BME280;34776;48.180;16.420;2023-02-19T00:54:45;99993.88;;;13.75;57.73
48964;BME280;34776;48.180;16.420;2023-02-19T00:57:10;99993.94;;;13.74;57.94
48964;BME280;34776;48.180;16.420;2023-02-19T00:59:35;99985.16;;;13.72;57.73
48964;BME280;34776;48.180;16.420;2023-02-19T01:02:01;99982.88;;;13.66;58.17
48964;BME280;34776;48.180;16.420;2023-02-19T01:04:27;99989.34;;;13.62;58.20
48964;BME280;34776;48.180;16.420;2023-02-19T01:06:52;99996.59;;;13.59;58.18
48964;BME280;34776;48.180;16.420;2023-02-19T01:09:18;99991.91;;;13.49;58.74
48964;BME280;34776;48.180;16.420;2023-02-19T01:11:43;99990.66;;;13.40;58.79
48964;BME280;34776;48.180;16.420;2023-02-19T01:14:09;99983.44;;;13.42;58.79
48964;BME280;34776;48.180;16.420;2023-02-19T01:16:34;99985.22;;;13.42;58.58
48964;BME280;34776;48.180;16.420;2023-02-19T01:19:00;99984.97;;;13.46;58.51
48964;BME280;34776;48.180;16.420;2023-02-19T01:21:27;99989.25;;;13.49;58.57
48964;BME280;34776;48.180;16.420;2023-02-19T01:23:53;99981.31;;;13.47;58.51
48964;BME280;34776;48.180;16.420;2023-02-19T01:26:37;99977.34;;;13.54;58.36
48964;BME280;34776;48.180;16.420;2023-02-19T01:29:02;99973.13;;;13.65;58.13
48964;BME280;34776;48.180;16.420;2023-02-19T01:31:28;99967.63;;;13.68;57.94
48964;BME280;34776;48.180;16.420;2023-02-19T01:33:56;99972.38;;;13.63;58.01
48964;BME280;34776;48.180;16.420;2023-02-19T01:36:22;99966.25;;;13.60;58.48
48964;BME280;34776;48.180;16.420;2023-02-19T01:38:47;99961.13;;;13.57;58.63
48964;BME280;34776;48.180;16.420;2023-02-19T01:41:17;99952.34;;;13.55;58.78
48964;BME280;34776;48.180;16.420;2023-02-19T01:46:35;99950.44;;;13.57;58.67
48964;BME280;34776;48.180;16.420;2023-02-19T01:49:21;99951.50;;;13.55;59.33
48964;BME280;34776;48.180;16.420;2023-02-19T01:51:56;99954.63;;;13.47;59.54
48964;BME280;34776;48.180;16.420;2023-02-19T01:54:26;99951.88;;;13.49;59.06
48964;BME280;34776;48.180;16.420;2023-02-19T01:56:53;99954.63;;;13.47;59.64
48964;BME280;34776;48.180;16.420;2023-02-19T01:59:19;99949.28;;;13.47;59.29
48964;BME280;34776;48.180;16.420;2023-02-19T02:01:46;99938.06;;;13.42;59.70
48964;BME280;34776;48.180;16.420;2023-02-19T02:04:13;99937.09;;;13.43;59.79
48964;BME280;34776;48.180;16.420;2023-02-19T02:06:52;99942.50;;;13.42;59.93
48964;BME280;34776;48.180;16.420;2023-02-19T02:09:24;99937.28;;;13.40;59.77
48964;BME280;34776;48.180;16.420;2023-02-19T02:12:09;99926.78;;;13.37;59.72
48964;BME280;34776;48.180;16.420;2023-02-19T02:14:37;99936.69;;;13.35;60.04
48964;BME280;34776;48.180;16.420;2023-02-19T02:17:24;99924.88;;;13.39;60.16
48964;BME280;34776;48.180;16.420;2023-02-19T02:22:39;99915.34;;;13.35;60.39
48964;BME280;34776;48.180;16.420;2023-02-19T02:27:53;99916.09;;;13.37;60.48
48964;BME280;34776;48.180;16.420;2023-02-19T02:35:49;99919.06;;;13.32;60.57
48964;BME280;34776;48.180;16.420;2023-02-19T02:38:17;99912.16;;;13.28;60.99
48964;BME280;34776;48.180;16.420;2023-02-19T02:40:45;99915.13;;;13.24;61.17
48964;BME280;34776;48.180;16.420;2023-02-19T02:43:11;99915.13;;;13.24;61.42
48964;BME280;34776;48.180;16.420;2023-02-19T02:45:37;99913.75;;;13.16;61.53
48964;BME280;34776;48.180;16.420;2023-02-19T02:51:08;99912.00;;;13.01;63.98
48964;BME280;34776;48.180;16.420;2023-02-19T02:53:55;99905.91;;;12.99;63.92
48964;BME280;34776;48.180;16.420;2023-02-19T02:56:40;99905.50;;;12.91;63.72
48964;BME280;34776;48.180;16.420;2023-02-19T02:59:09;99911.63;;;12.93;64.42
48964;BME280;34776;48.180;16.420;2023-02-19T03:02:01;99898.06;;;12.82;65.57
48964;BME280;34776;48.180;16.420;2023-02-19T03:13:21;99904.19;;;12.37;69.56
48964;BME280;34776;48.180;16.420;2023-02-19T03:16:13;99902.81;;;12.14;70.92
48964;BME280;34776;48.180;16.420;2023-02-19T03:18:59;99902.47;;;12.05;72.05
48964;BME280;34776;48.180;16.420;2023-02-19T03:21:48;99894.56;;;12.03;72.64
48964;BME280;34776;48.180;16.420;2023-02-19T03:24:19;99905.75;;;12.10;72.44
48964;BME280;34776;48.180;16.420;2023-02-19T03:27:05;99895.78;;;12.13;72.75
48964;BME280;34776;48.180;16.420;2023-02-19T03:29:36;99902.13;;;12.11;73.25
48964;BME280;34776;48.180;16.420;2023-02-19T03:32:08;99901.72;;;12.18;72.81
48964;BME280;34776;48.180;16.420;2023-02-19T03:34:41;99899.97;;;12.17;73.14
48964;BME280;34776;48.180;16.420;2023-02-19T03:37:16;99896.13;;;12.23;72.72
48964;BME280;34776;48.180;16.420;2023-02-19T03:39:43;99899.28;;;12.30;72.20
48964;BME280;34776;48.180;16.420;2023-02-19T03:47:46;99896.97;;;12.39;71.88
48964;BME280;34776;48.180;16.420;2023-02-19T03:50:18;99897.59;;;12.29;72.25
48964;BME280;34776;48.180;16.420;2023-02-19T03:58:30;99893.19;;;11.96;74.96
48964;BME280;34776;48.180;16.420;2023-02-19T04:01:15;99887.78;;;11.97;74.62
48964;BME280;34776;48.180;16.420;2023-02-19T04:03:47;99889.00;;;12.08;74.28
48964;BME280;34776;48.180;16.420;2023-02-19T04:06:19;99896.66;;;12.14;73.91
48964;BME280;34776;48.180;16.420;2023-02-19T04:08:48;99884.09;;;12.16;73.97
48964;BME280;34776;48.180;16.420;2023-02-19T04:11:17;99893.44;;;12.23;73.57
48964;BME280;34776;48.180;16.420;2023-02-19T04:13:55;99897.84;;;12.24;73.33
48964;BME280;34776;48.180;16.420;2023-02-19T04:16:26;99895.25;;;12.23;73.62
48964;BME280;34776;48.180;16.420;2023-02-19T04:18:56;99888.81;;;12.27;73.47
48964;BME280;34776;48.180;16.420;2023-02-19T04:21:23;99894.22;;;12.25;73.61
48964;BME280;34776;48.180;16.420;2023-02-19T04:23:50;99892.53;;;12.24;73.76
48964;BME280;34776;48.180;16.420;2023-02-19T04:26:16;99877.28;;;12.26;73.63
48964;BME280;34776;48.180;16.420;2023-02-19T04:28:44;99880.63;;;12.30;73.61
48964;BME280;34776;48.180;16.420;2023-02-19T04:31:10;99890.09;;;12.35;73.17
48964;BME280;34776;48.180;16.420;2023-02-19T04:33:36;99877.69;;;12.34;73.20
48964;BME280;34776;48.180;16.420;2023-02-19T04:36:01;99878.94;;;12.29;73.26
48964;BME280;34776;48.180;16.420;2023-02-19T04:38:26;99882.88;;;12.22;73.33
48964;BME280;34776;48.180;16.420;2023-02-19T04:40:52;99878.31;;;12.24;73.37
48964;BME280;34776;48.180;16.420;2023-02-19T04:43:17;99873.88;;;12.24;73.65
48964;BME280;34776;48.180;16.420;2023-02-19T04:45:43;99883.38;;;12.28;73.38
48964;BME280;34776;48.180;16.420;2023-02-19T04:48:08;99875.75;;;12.22;73.58
48964;BME280;34776;48.180;16.420;2023-02-19T04:50:37;99871.63;;;12.16;73.87
48964;BME280;34776;48.180;16.420;2023-02-19T04:53:02;99876.88;;;12.18;73.84
48964;BME280;34776;48.180;16.420;2023-02-19T04:55:28;99864.34;;;12.20;73.82
48964;BME280;34776;48.180;16.420;2023-02-19T04:57:53;99865.09;;;12.22;73.71
48964;BME280;34776;48.180;16.420;2023-02-19T05:00:18;99862.25;;;12.25;73.36
48964;BME280;34776;48.180;16.420;2023-02-19T05:02:44;99853.69;;;12.20;73.65
48964;BME280;34776;48.180;16.420;2023-02-19T05:05:09;99851.94;;;12.19;74.19
48964;BME280;34776;48.180;16.420;2023-02-19T05:07:34;99854.81;;;12.16;73.90
48964;BME280;34776;48.180;16.420;2023-02-19T05:10:00;99842.19;;;12.04;74.69
48964;BME280;34776;48.180;16.420;2023-02-19T05:12:25;99848.91;;;11.95;75.44
48964;BME280;34776;48.180;16.420;2023-02-19T05:14:51;99846.78;;;11.84;76.52
48964;BME280;34776;48.180;16.420;2023-02-19T05:17:16;99841.47;;;11.68;77.85
48964;BME280;34776;48.180;16.420;2023-02-19T05:19:41;99846.75;;;11.52;79.10
48964;BME280;34776;48.180;16.420;2023-02-19T05:22:07;99840.06;;;11.45;80.87
48964;BME280;34776;48.180;16.420;2023-02-19T05:24:32;99845.91;;;11.36;83.16
48964;BME280;34776;48.180;16.420;2023-02-19T05:26:57;99835.25;;;11.36;84.90
48964;BME280;34776;48.180;16.420;2023-02-19T05:29:23;99838.25;;;11.30;85.99
48964;BME280;34776;48.180;16.420;2023-02-19T05:31:48;99826.13;;;11.24;87.18
48964;BME280;34776;48.180;16.420;2023-02-19T05:34:14;99828.00;;;11.22;88.23
48964;BME280;34776;48.180;16.420;2023-02-19T05:36:39;99815.88;;;11.16;88.75
48964;BME280;34776;48.180;16.420;2023-02-19T05:39:05;99818.56;;;11.16;89.25
48964;BME280;34776;48.180;16.420;2023-02-19T05:41:31;99812.44;;;11.14;89.50
48964;BME280;34776;48.180;16.420;2023-02-19T05:43:57;99814.34;;;11.12;90.16
48964;BME280;34776;48.180;16.420;2023-02-19T05:46:24;99802.47;;;11.02;89.86
48964;BME280;34776;48.180;16.420;2023-02-19T05:48:52;99791.06;;;11.00;90.58
48964;BME280;34776;48.180;16.420;2023-02-19T05:51:19;99803.94;;;10.92;90.67
48964;BME280;34776;48.180;16.420;2023-02-19T05:53:45;99793.28;;;10.92;91.04
48964;BME280;34776;48.180;16.420;2023-02-19T05:56:31;99799.13;;;10.99;91.19
48964;BME280;34776;48.180;16.420;2023-02-19T05:58:57;99794.50;;;11.02;91.18
48964;BME280;34776;48.180;16.420;2023-02-19T06:01:26;99777.88;;;10.99;91.10
48964;BME280;34776;48.180;16.420;2023-02-19T06:03:51;99793.56;;;11.03;91.54
48964;BME280;34776;48.180;16.420;2023-02-19T06:06:17;99790.91;;;11.03;91.77
48964;BME280;34776;48.180;16.420;2023-02-19T06:08:43;99792.63;;;11.04;91.69
48964;BME280;34776;48.180;16.420;2023-02-19T06:11:09;99780.34;;;11.02;91.52
48964;BME280;34776;48.180;16.420;2023-02-19T06:13:34;99789.16;;;11.02;91.42
48964;BME280;34776;48.180;16.420;2023-02-19T06:16:03;99783.78;;;11.04;92.07
48964;BME280;34776;48.180;16.420;2023-02-19T06:18:28;99772.28;;;11.03;91.47
48964;BME280;34776;48.180;16.420;2023-02-19T06:20:59;99782.31;;;10.98;90.84
48964;BME280;34776;48.180;16.420;2023-02-19T06:23:27;99784.97;;;10.98;90.87
48964;BME280;34776;48.180;16.420;2023-02-19T06:25:52;99794.34;;;11.05;90.97
48964;BME280;34776;48.180;16.420;2023-02-19T06:28:18;99791.63;;;11.07;90.12
48964;BME280;34776;48.180;16.420;2023-02-19T06:30:43;99796.81;;;11.08;89.92
48964;BME280;34776;48.180;16.420;2023-02-19T06:33:08;99795.38;;;11.18;89.67
48964;BME280;34776;48.180;16.420;2023-02-19T06:35:35;99795.34;;;11.36;88.85
48964;BME280;34776;48.180;16.420;2023-02-19T06:38:00;99794.31;;;11.54;87.61
48964;BME280;34776;48.180;16.420;2023-02-19T06:40:25;99795.50;;;11.65;86.35
48964;BME280;34776;48.180;16.420;2023-02-19T06:42:51;99795.03;;;11.74;85.90
48964;BME280;34776;48.180;16.420;2023-02-19T06:45:16;99796.19;;;11.84;85.40
48964;BME280;34776;48.180;16.420;2023-02-19T06:47:41;99800.28;;;11.91;84.92
48964;BME280;34776;48.180;16.420;2023-02-19T06:50:07;99796.28;;;11.98;84.87
48964;BME280;34776;48.180;16.420;2023-02-19T06:52:32;99794.25;;;12.04;84.44
48964;BME280;34776;48.180;16.420;2023-02-19T06:54:58;99793.00;;;12.09;83.22
48964;BME280;34776;48.180;16.420;2023-02-19T06:57:23;99782.28;;;12.11;82.53
48964;BME280;34776;48.180;16.420;2023-02-19T06:59:48;99778.41;;;12.16;81.59
48964;BME280;34776;48.180;16.420;2023-02-19T07:02:14;99779.59;;;12.27;82.16
48964;BME280;34776;48.180;16.420;2023-02-19T07:04:39;99797.97;;;12.31;81.14
48964;BME280;34776;48.180;16.420;2023-02-19T07:07:05;99789.00;;;12.32;80.67
48964;BME280;34776;48.180;16.420;2023-02-19T07:09:30;99806.44;;;12.38;80.82
48964;BME280;34776;48.180;16.420;2023-02-19T07:11:56;99806.16;;;12.43;80.37
48964;BME280;34776;48.180;16.420;2023-02-19T07:14:21;99805.41;;;12.41;79.60
48964;BME280;34776;48.180;16.420;2023-02-19T07:16:47;99802.38;;;12.47;80.83
48964;BME280;34776;48.180;16.420;2023-02-19T07:19:14;99801.31;;;12.49;80.27
48964;BME280;34776;48.180;16.420;2023-02-19T07:21:40;99801.84;;;12.56;80.38
48964;BME280;34776;48.180;16.420;2023-02-19T07:24:07;99807.94;;;12.58;79.97
48964;BME280;34776;48.180;16.420;2023-02-19T07:29:21;99793.72;;;12.57;79.02
48964;BME280;34776;48.180;16.420;2023-02-19T07:31:46;99785.66;;;12.59;78.78
48964;BME280;34776;48.180;16.420;2023-02-19T07:56:09;99787.59;;;12.86;76.32
48964;BME280;34776;48.180;16.420;2023-02-19T08:01:13;99778.63;;;12.87;74.56
48964;BME280;34776;48.180;16.420;2023-02-19T08:03:40;99784.34;;;12.80;74.40
48964;BME280;34776;48.180;16.420;2023-02-19T08:06:07;99779.28;;;12.76;74.02
48964;BME280;34776;48.180;16.420;2023-02-19T08:08:32;99794.63;;;12.87;74.08
48964;BME280;34776;48.180;16.420;2023-02-19T08:10:59;99799.13;;;13.00;73.20
48964;BME280;34776;48.180;16.420;2023-02-19T08:13:36;99800.56;;;13.06;72.32
48964;BME280;34776;48.180;16.420;2023-02-19T08:18:30;99806.09;;;13.17;70.89
48964;BME280;34776;48.180;16.420;2023-02-19T08:20:56;99806.47;;;13.26;70.73
48964;BME280;34776;48.180;16.420;2023-02-19T08:23:22;99806.84;;;13.19;69.58
48964;BME280;34776;48.180;16.420;2023-02-19T08:25:50;99820.47;;;13.00;70.06
48964;BME280;34776;48.180;16.420;2023-02-19T08:28:16;99809.72;;;13.02;70.97
48964;BME280;34776;48.180;16.420;2023-02-19T08:30:42;99807.97;;;13.01;70.66
48964;BME280;34776;48.180;16.420;2023-02-19T08:33:11;99811.25;;;13.06;70.76
48964;BME280;34776;48.180;16.420;2023-02-19T08:56:15;99814.38;;;13.27;69.56
48964;BME280;34776;48.180;16.420;2023-02-19T08:58:43;99830.69;;;13.08;71.11
48964;BME280;34776;48.180;16.420;2023-02-19T09:01:11;99835.91;;;13.10;71.48
48964;BME280;34776;48.180;16.420;2023-02-19T09:30:35;99822.50;;;18.10;51.61
48964;BME280;34776;48.180;16.420;2023-02-19T09:33:00;99821.91;;;17.61;52.56
48964;BME280;34776;48.180;16.420;2023-02-19T09:35:25;99816.91;;;17.00;54.60
48964;BME280;34776;48.180;16.420;2023-02-19T09:37:51;99809.47;;;17.83;55.44
48964;BME280;34776;48.180;16.420;2023-02-19T09:40:16;99804.00;;;18.70;54.23
48964;BME280;34776;48.180;16.420;2023-02-19T09:42:47;99797.59;;;19.44;51.96
48964;BME280;34776;48.180;16.420;2023-02-19T09:45:21;99792.81;;;19.47;50.49
48964;BME280;34776;48.180;16.420;2023-02-19T09:47:47;99800.56;;;19.72;51.59
48964;BME280;34776;48.180;16.420;2023-02-19T09:50:17;99810.09;;;19.45;50.80
48964;BME280;34776;48.180;16.420;2023-02-19T09:52:51;99802.38;;;19.00;51.05
48964;BME280;34776;48.180;16.420;2023-02-19T09:55:54;99812.34;;;18.35;47.64
48964;BME280;34776;48.180;16.420;2023-02-19T09:58:30;99796.78;;;17.62;50.52
48964;BME280;34776;48.180;16.420;2023-02-19T10:00:59;99807.50;;;17.17;51.99
48964;BME280;34776;48.180;16.420;2023-02-19T10:06:00;99799.56;;;16.58;53.11
48964;BME280;34776;48.180;16.420;2023-02-19T10:08:33;99793.44;;;16.44;52.68
48964;BME280;34776;48.180;16.420;2023-02-19T10:11:00;99793.28;;;16.35;52.71
48964;BME280;34776;48.180;16.420;2023-02-19T10:13:30;99795.84;;;16.36;52.82
48964;BME280;34776;48.180;16.420;2023-02-19T10:15:59;99786.91;;;16.24;52.28
48964;BME280;34776;48.180;16.420;2023-02-19T10:18:27;99802.19;;;16.35;52.97
48964;BME280;34776;48.180;16.420;2023-02-19T10:20:55;99795.31;;;16.55;52.19
48964;BME280;34776;48.180;16.420;2023-02-19T10:23:22;99779.31;;;16.54;51.40
48964;BME280;34776;48.180;16.420;2023-02-19T10:25:52;99791.03;;;16.53;50.76
48964;BME280;34776;48.180;16.420;2023-02-19T10:28:25;99794.59;;;16.29;50.56
48964;BME280;34776;48.180;16.420;2023-02-19T10:30:53;99793.34;;;16.22;50.29
48964;BME280;34776;48.180;16.420;2023-02-19T10:33:19;99792.78;;;16.06;50.56
48964;BME280;34776;48.180;16.420;2023-02-19T10:35:59;99788.91;;;16.10;49.24
48964;BME280;34776;48.180;16.420;2023-02-19T10:40:58;99788.22;;;16.19;49.44
48964;BME280;34776;48.180;16.420;2023-02-19T10:43:26;99796.03;;;16.22;48.61
48964;BME280;34776;48.180;16.420;2023-02-19T10:46:00;99796.03;;;16.22;48.57
48964;BME280;34776;48.180;16.420;2023-02-19T10:48:30;99814.53;;;16.38;48.73
48964;BME280;34776;48.180;16.420;2023-02-19T10:51:15;99805.84;;;16.34;47.35
48964;BME280;34776;48.180;16.420;2023-02-19T10:53:50;99812.97;;;16.47;48.62
48964;BME280;34776;48.180;16.420;2023-02-19T10:56:25;99810.94;;;16.61;47.93
48964;BME280;34776;48.180;16.420;2023-02-19T10:58:51;99802.75;;;16.63;48.19
48964;BME280;34776;48.180;16.420;2023-02-19T11:01:22;99795.22;;;16.79;48.16
48964;BME280;34776;48.180;16.420;2023-02-19T11:03:52;99793.00;;;17.09;47.35
48964;BME280;34776;48.180;16.420;2023-02-19T11:23:12;99785.13;;;17.84;44.22
48964;BME280;34776;48.180;16.420;2023-02-19T11:25:44;99786.34;;;17.92;43.64
48964;BME280;34776;48.180;16.420;2023-02-19T11:31:12;99795.00;;;18.07;43.07
48964;BME280;34776;48.180;16.420;2023-02-19T11:49:24;99801.78;;;18.22;43.59
48964;BME280;34776;48.180;16.420;2023-02-19T11:54:43;99782.59;;;17.60;44.15
48964;BME280;34776;48.180;16.420;2023-02-19T12:00:19;99787.38;;;17.34;44.76
48964;BME280;34776;48.180;16.420;2023-02-19T12:05:51;99824.94;;;16.54;47.21
48964;BME280;34776;48.180;16.420;2023-02-19T12:16:59;99854.72;;;13.51;61.14
48964;BME280;34776;48.180;16.420;2023-02-19T12:22:28;99840.94;;;13.14;64.88
48964;BME280;34776;48.180;16.420;2023-02-19T12:31:01;99828.91;;;14.20;62.92
48964;BME280;34776;48.180;16.420;2023-02-19T12:50:22;99805.44;;;16.03;55.78
48964;BME280;34776;48.180;16.420;2023-02-19T12:52:52;99801.16;;;16.25;59.96
48964;BME280;34776;48.180;16.420;2023-02-19T12:57:47;99818.25;;;16.35;58.19
48964;BME280;34776;48.180;16.420;2023-02-19T13:15:13;99795.97;;;15.50;51.87
48964;BME280;34776;48.180;16.420;2023-02-19T13:17:46;99785.59;;;15.82;55.07
48964;BME280;34776;48.180;16.420;2023-02-19T13:25:55;99798.00;;;15.83;49.67
48964;BME280;34776;48.180;16.420;2023-02-19T13:29:19;99794.59;;;15.81;49.31
48964;BME280;34776;48.180;16.420;2023-02-19T13:34:18;99781.28;;;15.92;47.44
48964;BME280;34776;48.180;16.420;2023-02-19T13:36:46;99786.47;;;15.70;49.19
48964;BME280;34776;48.180;16.420;2023-02-19T13:39:14;99786.59;;;15.55;49.59
48964;BME280;34776;48.180;16.420;2023-02-19T13:41:42;99806.66;;;15.37;48.51
48964;BME280;34776;48.180;16.420;2023-02-19T13:44:18;99782.41;;;15.14;48.92
48964;BME280;34776;48.180;16.420;2023-02-19T13:46:46;99792.81;;;15.06;49.73
48964;BME280;34776;48.180;16.420;2023-02-19T13:54:27;99789.06;;;14.83;51.26
48964;BME280;34776;48.180;16.420;2023-02-19T14:05:08;99832.59;;;13.49;57.57
48964;BME280;34776;48.180;16.420;2023-02-19T14:07:51;99841.06;;;13.42;57.63
48964;BME280;34776;48.180;16.420;2023-02-19T14:10:52;99842.22;;;13.23;58.81
48964;BME280;34776;48.180;16.420;2023-02-19T14:19:02;99842.75;;;12.99;59.35
48964;BME280;34776;48.180;16.420;2023-02-19T14:21:36;99864.59;;;13.06;59.23
48964;BME280;34776;48.180;16.420;2023-02-19T14:24:03;99876.41;;;13.16;59.06
48964;BME280;34776;48.180;16.420;2023-02-19T14:26:31;99887.28;;;13.28;58.18
48964;BME280;34776;48.180;16.420;2023-02-19T14:29:20;99923.53;;;13.32;59.48
48964;BME280;34776;48.180;16.420;2023-02-19T14:32:05;99921.78;;;12.86;62.96
48964;BME280;34776;48.180;16.420;2023-02-19T14:34:30;99916.66;;;12.37;66.15
48964;BME280;34776;48.180;16.420;2023-02-19T14:36:58;99908.06;;;12.16;69.14
48964;BME280;34776;48.180;16.420;2023-02-19T14:39:30;99921.56;;;11.97;70.02
48964;BME280;34776;48.180;16.420;2023-02-19T14:42:16;99915.16;;;11.84;71.34
48964;BME280;34776;48.180;16.420;2023-02-19T14:44:51;99919.94;;;11.77;72.76
48964;BME280;34776;48.180;16.420;2023-02-19T14:47:21;99920.53;;;11.82;72.66
48964;BME280;34776;48.180;16.420;2023-02-19T14:49:58;99932.22;;;11.97;71.94
48964;BME280;34776;48.180;16.420;2023-02-19T14:52:38;99924.13;;;11.98;70.18
48964;BME280;34776;48.180;16.420;2023-02-19T14:55:13;99928.53;;;11.82;70.42
48964;BME280;34776;48.180;16.420;2023-02-19T14:57:44;99942.72;;;11.83;71.80
48964;BME280;34776;48.180;16.420;2023-02-19T15:00:21;99954.88;;;11.71;72.44
48964;BME280;34776;48.180;16.420;2023-02-19T15:02:50;99960.91;;;11.41;75.77
48964;BME280;34776;48.180;16.420;2023-02-19T15:05:24;99951.53;;;11.16;77.39
48964;BME280;34776;48.180;16.420;2023-02-19T15:07:52;99959.22;;;11.05;79.16
48964;BME280;34776;48.180;16.420;2023-02-19T15:10:19;99951.59;;;10.97;80.38
48964;BME280;34776;48.180;16.420;2023-02-19T15:12:48;99969.06;;;10.86;80.89
48964;BME280;34776;48.180;16.420;2023-02-19T15:15:18;99971.13;;;10.79;81.58
48964;BME280;34776;48.180;16.420;2023-02-19T15:17:45;99987.63;;;10.68;81.54
48964;BME280;34776;48.180;16.420;2023-02-19T15:20:17;100005.72;;;10.60;83.17
48964;BME280;34776;48.180;16.420;2023-02-19T15:22:44;100003.88;;;10.43;82.68
48964;BME280;34776;48.180;16.420;2023-02-19T15:25:18;100019.53;;;10.30;84.51
48964;BME280;34776;48.180;16.420;2023-02-19T15:27:45;100020.97;;;10.19;85.39
48964;BME280;34776;48.180;16.420;2023-02-19T15:30:25;100046.44;;;10.04;86.58
48964;BME280;34776;48.180;16.420;2023-02-19T15:32:56;100053.94;;;9.94;87.50
48964;BME280;34776;48.180;16.420;2023-02-19T15:35:22;100059.38;;;9.91;88.60
48964;BME280;34776;48.180;16.420;2023-02-19T15:37:50;100055.06;;;9.88;89.61
48964;BME280;34776;48.180;16.420;2023-02-19T15:40:16;100057.06;;;9.83;90.35
48964;BME280;34776;48.180;16.420;2023-02-19T15:42:44;100057.06;;;9.83;91.59
48964;BME280;34776;48.180;16.420;2023-02-19T15:48:13;100073.53;;;9.71;92.10
48964;BME280;34776;48.180;16.420;2023-02-19T15:50:43;100063.72;;;9.52;91.35
48964;BME280;34776;48.180;16.420;2023-02-19T15:53:16;100085.19;;;9.46;91.97
48964;BME280;34776;48.180;16.420;2023-02-19T16:01:21;100089.78;;;9.21;91.42
48964;BME280;34776;48.180;16.420;2023-02-19T16:03:49;100105.84;;;9.18;92.12
48964;BME280;34776;48.180;16.420;2023-02-19T16:06:16;100101.84;;;9.07;92.36
48964;BME280;34776;48.180;16.420;2023-02-19T16:09:03;100119.66;;;9.04;93.31
48964;BME280;34776;48.180;16.420;2023-02-19T16:11:47;100135.84;;;8.96;93.64
48964;BME280;34776;48.180;16.420;2023-02-19T16:16:54;100142.97;;;8.72;93.04
48964;BME280;34776;48.180;16.420;2023-02-19T16:19:25;100132.63;;;8.66;93.33
48964;BME280;34776;48.180;16.420;2023-02-19T16:21:51;100136.25;;;8.63;93.29
48964;BME280;34776;48.180;16.420;2023-02-19T16:24:41;100151.34;;;8.61;93.50
48964;BME280;34776;48.180;16.420;2023-02-19T16:27:10;100138.91;;;8.63;93.56
48964;BME280;34776;48.180;16.420;2023-02-19T16:29:37;100148.69;;;8.61;93.11
48964;BME280;34776;48.180;16.420;2023-02-19T16:32:04;100144.19;;;8.63;93.53
48964;BME280;34776;48.180;16.420;2023-02-19T16:34:40;100157.31;;;8.66;93.47
48964;BME280;34776;48.180;16.420;2023-02-19T16:44:58;100154.88;;;8.84;92.79
48964;BME280;34776;48.180;16.420;2023-02-19T16:47:27;100149.81;;;8.78;91.76
48964;BME280;34776;48.180;16.420;2023-02-19T16:49:53;100171.34;;;8.92;91.61
48964;BME280;34776;48.180;16.420;2023-02-19T16:52:20;100178.81;;;9.04;90.67
48964;BME280;34776;48.180;16.420;2023-02-19T16:54:47;100180.19;;;9.14;89.47
48964;BME280;34776;48.180;16.420;2023-02-19T16:57:12;100189.00;;;9.15;87.30
48964;BME280;34776;48.180;16.420;2023-02-19T16:59:37;100181.84;;;9.17;85.93
48964;BME280;34776;48.180;16.420;2023-02-19T17:02:04;100196.75;;;9.20;86.20
48964;BME280;34776;48.180;16.420;2023-02-19T17:04:30;100197.56;;;9.22;85.55
48964;BME280;34776;48.180;16.420;2023-02-19T17:06:56;100213.59;;;9.19;85.97
48964;BME280;34776;48.180;16.420;2023-02-19T17:09:21;100231.84;;;9.04;85.58
48964;BME280;34776;48.180;16.420;2023-02-19T17:11:46;100226.03;;;8.94;86.45
48964;BME280;34776;48.180;16.420;2023-02-19T17:14:12;100237.81;;;8.86;86.57
48964;BME280;34776;48.180;16.420;2023-02-19T17:16:37;100235.34;;;8.81;87.28
48964;BME280;34776;48.180;16.420;2023-02-19T17:19:14;100247.03;;;8.76;87.47
48964;BME280;34776;48.180;16.420;2023-02-19T17:21:40;100257.59;;;8.77;88.01
48964;BME280;34776;48.180;16.420;2023-02-19T17:24:06;100268.22;;;8.76;88.36